Time;durP1;ratioP1;P1;durP2;ratioP2;P2;SDS_P1;SDS_P2;PMS_P1;PMS_P2;Temp;Humidity;BMP_temperature;BMP_pressure;BME280_temperature;BME280_humidity;BME280_pressure;Samples;Min_cycle;Max_cycle;Signal;HPM_P1;HPM_P2
2023/10/04 00:01:45;;;;;;;15.20;7.20;;;;;;;12.53;67.77;94658.41;5026029;28;20258;-77
2023/10/04 00:04:10;;;;;;;17.85;7.13;;;;;;;12.50;67.92;94662.47;5041457;28;20065;-77
2023/10/04 00:06:36;;;;;;;11.18;6.28;;;;;;;12.47;68.05;94663.06;5026089;28;20026;-77
2023/10/04 00:09:03;;;;;;;16.63;6.97;;;;;;;12.47;68.17;94667.63;5026000;28;20069;-78
2023/10/04 00:11:30;;;;;;;19.88;7.97;;;;;;;12.45;67.97;94652.69;5025856;28;20136;-78
2023/10/04 00:13:55;;;;;;;18.90;6.90;;;;;;;12.50;67.87;94654.47;5025795;28;20089;-76
2023/10/04 00:16:22;;;;;;;12.30;6.57;;;;;;;12.47;67.92;94652.38;5025628;28;20073;-76
2023/10/04 00:18:48;;;;;;;20.42;8.10;;;;;;;12.40;68.33;94654.72;5025853;28;20096;-76
2023/10/04 00:21:13;;;;;;;19.23;7.60;;;;;;;12.37;68.57;94652.63;5025610;28;20022;-76
2023/10/04 00:23:39;;;;;;;18.45;7.47;;;;;;;12.38;68.63;94655.00;5025591;28;20240;-76
2023/10/04 00:26:07;;;;;;;13.60;6.80;;;;;;;12.33;68.42;94649.75;5025574;28;20069;-76
2023/10/04 00:28:33;;;;;;;16.00;6.70;;;;;;;12.34;68.83;94663.94;5025555;28;20034;-76
2023/10/04 00:30:59;;;;;;;16.30;7.40;;;;;;;12.31;68.84;94653.84;5025646;28;20025;-76
2023/10/04 00:33:26;;;;;;;15.15;6.43;;;;;;;12.22;68.97;94646.56;5025660;28;20037;-77
2023/10/04 00:35:52;;;;;;;16.00;7.18;;;;;;;12.24;69.03;94649.72;5024828;28;20030;-76
2023/10/04 00:38:19;;;;;;;18.10;7.38;;;;;;;12.24;69.17;94652.38;5025173;28;20335;-76
2023/10/04 00:40:47;;;;;;;18.83;7.80;;;;;;;12.24;68.92;94647.03;5025288;28;20017;-76
2023/10/04 00:43:15;;;;;;;15.95;7.30;;;;;;;12.24;69.16;94649.72;5025296;28;20212;-76
2023/10/04 00:45:47;;;;;;;15.75;8.15;;;;;;;12.20;69.26;94648.75;5024096;28;20018;-76
2023/10/04 00:48:15;;;;;;;;;;;;;;;12.18;69.41;94642.13;5025583;28;20025;-76
2023/10/04 00:50:41;;;;;;;16.88;7.00;;;;;;;12.08;69.30;94639.69;5025224;28;19905;-76
2023/10/04 00:53:13;;;;;;;16.85;7.43;;;;;;;12.04;69.83;94642.19;5025099;28;20052;-76
2023/10/04 00:55:43;;;;;;;16.92;7.00;;;;;;;12.00;69.87;94638.53;5025179;28;20026;-81
2023/10/04 00:58:11;;;;;;;17.98;7.28;;;;;;;12.00;69.84;94641.97;5025232;28;20026;-76
2023/10/04 01:00:43;;;;;;;18.50;7.25;;;;;;;11.99;69.87;94642.31;5023810;28;20029;-77
2023/10/04 01:03:14;;;;;;;17.42;7.53;;;;;;;11.98;69.96;94635.38;5024865;28;20030;-77
2023/10/04 01:05:47;;;;;;;12.00;7.07;;;;;;;11.96;69.87;94643.69;5024605;28;20017;-77
2023/10/04 01:08:15;;;;;;;;;;;;;;;11.95;70.08;94654.69;5025454;28;20247;-77
2023/10/04 01:10:43;;;;;;;22.33;7.70;;;;;;;11.90;69.92;94652.13;5025092;28;19936;-76
2023/10/04 01:13:09;;;;;;;14.10;6.70;;;;;;;11.90;69.99;94644.88;5025022;28;20060;-77
2023/10/04 01:15:42;;;;;;;15.73;7.97;;;;;;;11.92;70.09;94647.25;5024743;28;20346;-76
2023/10/04 01:18:11;;;;;;;;;;;;;;;11.91;70.04;94645.69;5025111;28;20282;-76
2023/10/04 01:20:39;;;;;;;19.45;6.65;;;;;;;11.85;70.19;94645.78;5024626;28;19921;-77
2023/10/04 01:23:06;;;;;;;19.67;7.32;;;;;;;11.84;70.27;94646.88;5024610;28;20032;-77
2023/10/04 01:25:33;;;;;;;17.17;7.68;;;;;;;11.90;70.18;94655.56;5024655;28;20018;-77
2023/10/04 01:28:01;;;;;;;17.15;7.32;;;;;;;11.85;69.97;94653.78;5024406;28;20029;-77
2023/10/04 01:30:31;;;;;;;19.27;7.97;;;;;;;11.85;69.68;94656.44;5024575;28;20065;-76
2023/10/04 01:32:59;;;;;;;14.73;7.03;;;;;;;11.85;69.63;94659.13;5024432;28;20025;-76
2023/10/04 01:35:27;;;;;;;15.07;7.72;;;;;;;11.83;69.98;94655.19;5024050;28;20036;-76
2023/10/04 01:37:53;;;;;;;18.75;7.53;;;;;;;11.87;69.77;94655.38;5024109;28;20096;-77
2023/10/04 01:40:26;;;;;;;18.25;8.15;;;;;;;11.87;69.68;94652.72;5024466;28;20018;-76
2023/10/04 01:42:54;;;;;;;18.77;8.30;;;;;;;11.82;69.97;94654.41;5024325;28;20219;-77
2023/10/04 01:45:21;;;;;;;17.77;8.38;;;;;;;11.80;69.98;94656.56;5024075;28;20063;-76
2023/10/04 01:47:47;;;;;;;20.95;8.40;;;;;;;11.76;70.50;94650.22;5023280;28;20022;-77
2023/10/04 01:50:15;;;;;;;16.35;7.57;;;;;;;11.77;70.44;94653.72;5022996;28;20026;-77
2023/10/04 01:52:49;;;;;;;16.02;8.48;;;;;;;11.77;70.57;94654.50;5024114;28;20032;-77
2023/10/04 01:55:16;;;;;;;18.88;8.50;;;;;;;11.76;70.49;94647.56;5024073;28;20030;-77
2023/10/04 01:57:43;;;;;;;22.65;8.20;;;;;;;11.75;70.43;94659.34;5024116;28;20104;-77
2023/10/04 02:00:11;;;;;;;21.45;8.52;;;;;;;11.72;70.73;94643.91;5023706;28;20038;-77
2023/10/04 02:02:39;;;;;;;14.77;7.65;;;;;;;11.74;70.60;94641.72;5023787;28;20057;-77
2023/10/04 02:05:10;;;;;;;12.70;6.95;;;;;;;11.70;70.69;94645.31;5039119;28;20021;-77
2023/10/04 02:07:38;;;;;;;20.58;8.32;;;;;;;11.64;70.91;94642.75;5023889;28;20123;-78
2023/10/04 02:10:18;;;;;;;18.58;8.07;;;;;;;11.65;70.95;94643.53;5023731;28;20030;-77
2023/10/04 02:12:43;;;;;;;19.38;7.55;;;;;;;11.64;70.94;94653.44;5023763;28;20022;-77
2023/10/04 02:15:14;;;;;;;16.83;7.10;;;;;;;11.60;71.07;94647.13;5023554;28;20060;-77
2023/10/04 02:17:45;;;;;;;17.02;7.88;;;;;;;11.60;71.27;94655.13;5023595;28;20141;-77
2023/10/04 02:20:18;;;;;;;22.73;8.18;;;;;;;11.58;71.15;94643.16;5023483;28;20028;-76
2023/10/04 02:22:44;;;;;;;18.15;8.07;;;;;;;11.59;71.27;94660.78;5038740;28;20049;-77
2023/10/04 02:25:13;;;;;;;26.05;7.80;;;;;;;11.58;71.37;94651.97;5022298;28;20018;-76
2023/10/04 02:27:40;;;;;;;20.90;8.45;;;;;;;11.53;71.56;94645.94;5023462;28;20083;-76
2023/10/04 02:30:13;;;;;;;18.05;8.32;;;;;;;11.47;71.84;94657.81;5023461;28;20024;-76
2023/10/04 02:32:43;;;;;;;22.60;8.63;;;;;;;11.45;71.92;94650.88;5022161;28;20018;-77
2023/10/04 02:35:26;;;;;;;17.58;9.32;;;;;;;11.39;72.13;94660.09;5023204;28;20041;-77
2023/10/04 02:37:54;;;;;;;20.75;8.73;;;;;;;11.43;72.16;94654.94;5023228;28;20366;-79
2023/10/04 02:40:27;;;;;;;18.67;8.18;;;;;;;11.35;72.39;94655.66;5023385;28;20037;-76
2023/10/04 02:42:56;;;;;;;19.73;7.57;;;;;;;11.35;72.57;94653.75;5022857;28;20045;-76
2023/10/04 02:45:24;;;;;;;16.85;8.00;;;;;;;11.36;72.68;94658.03;5020576;28;20216;-77
2023/10/04 02:47:50;;;;;;;28.92;9.85;;;;;;;11.34;72.67;94659.44;5021894;28;20029;-77
2023/10/04 02:50:17;;;;;;;18.92;9.07;;;;;;;11.30;72.68;94650.44;5022087;28;20037;-77
2023/10/04 02:52:44;;;;;;;19.00;8.57;;;;;;;11.25;72.74;94656.63;5022951;28;20105;-75
2023/10/04 02:55:15;;;;;;;24.98;8.65;;;;;;;11.21;72.86;94643.13;5023222;28;20018;-74
2023/10/04 02:57:41;;;;;;;21.55;9.25;;;;;;;11.17;73.01;94647.47;5022916;28;20045;-76
2023/10/04 03:00:17;;;;;;;27.17;8.40;;;;;;;11.20;72.83;94648.75;5021599;28;20041;-76
2023/10/04 03:02:50;;;;;;;18.15;8.75;;;;;;;11.22;73.08;94646.56;5022848;28;20022;-76
2023/10/04 03:05:20;;;;;;;23.90;9.13;;;;;;;11.18;73.11;94645.59;5023106;28;20093;-77
2023/10/04 03:07:50;;;;;;;17.52;8.68;;;;;;;11.18;73.08;94646.38;5022956;28;20026;-76
2023/10/04 03:10:27;;;;;;;19.77;8.70;;;;;;;11.22;72.87;94649.25;5023032;28;20104;-76
2023/10/04 03:12:56;;;;;;;25.92;8.70;;;;;;;11.23;72.94;94648.13;5022919;28;20093;-76
2023/10/04 03:15:23;;;;;;;19.20;8.93;;;;;;;11.23;72.82;94650.81;5021561;28;20108;-75
2023/10/04 03:17:53;;;;;;;20.25;9.25;;;;;;;11.23;72.91;94648.94;5022781;28;20097;-75
2023/10/04 03:20:30;;;;;;;14.73;8.05;;;;;;;11.24;72.78;94655.06;5022809;28;20026;-75
2023/10/04 03:22:55;;;;;;;22.13;8.88;;;;;;;11.22;72.76;94642.03;5021624;28;20113;-75
2023/10/04 03:25:26;;;;;;;19.30;8.45;;;;;;;11.22;72.77;94655.38;5022462;28;20212;-75
2023/10/04 03:27:52;;;;;;;19.27;8.63;;;;;;;11.21;72.70;94656.47;5022799;28;20034;-75
2023/10/04 03:30:18;;;;;;;18.27;8.18;;;;;;;11.19;72.92;94647.97;5021540;28;20036;-75
2023/10/04 03:32:50;;;;;;;17.98;8.38;;;;;;;11.21;72.84;94653.78;5022522;28;20316;-75
2023/10/04 03:35:15;;;;;;;20.90;9.30;;;;;;;11.15;72.79;94641.63;5022570;28;20025;-75
2023/10/04 03:38:01;;;;;;;19.95;8.85;;;;;;;11.16;73.01;94653.09;5022489;28;20240;-75
2023/10/04 03:40:38;;;;;;;15.32;7.18;;;;;;;11.12;73.06;94663.56;5022512;28;20026;-76
2023/10/04 03:43:05;;;;;;;17.08;8.32;;;;;;;11.11;73.24;94650.50;5022420;28;20028;-76
2023/10/04 03:45:40;;;;;;;17.88;7.45;;;;;;;11.13;73.29;94659.00;5022671;28;20026;-76
2023/10/04 03:48:19;;;;;;;16.20;8.05;;;;;;;11.11;73.03;94655.84;5022648;28;20032;-76
2023/10/04 03:50:45;;;;;;;21.45;8.60;;;;;;;11.10;73.40;94656.94;5022490;28;20049;-77
2023/10/04 03:53:12;;;;;;;19.08;9.25;;;;;;;11.06;73.78;94659.41;5021347;28;20084;-76
2023/10/04 03:55:38;;;;;;;26.20;8.95;;;;;;;11.07;73.56;94660.19;5022567;28;20103;-76
2023/10/04 03:58:04;;;;;;;21.85;8.90;;;;;;;11.07;73.42;94649.53;5022499;28;20328;-75
2023/10/04 04:00:31;;;;;;;20.70;9.35;;;;;;;11.07;73.73;94654.88;5022591;28;20026;-76
2023/10/04 04:02:58;;;;;;;21.02;8.80;;;;;;;11.06;73.96;94656.75;5022398;28;20030;-76
2023/10/04 04:05:23;;;;;;;18.83;9.25;;;;;;;11.03;73.68;94657.31;5022376;28;20034;-76
2023/10/04 04:07:51;;;;;;;21.45;9.45;;;;;;;11.06;73.91;94661.31;5022635;28;20056;-76
2023/10/04 04:10:19;;;;;;;22.38;8.52;;;;;;;11.01;73.83;94662.97;5024027;28;20034;-76
2023/10/04 04:12:46;;;;;;;23.10;9.27;;;;;;;11.00;73.91;94655.25;5026071;28;20033;-76
2023/10/04 04:15:12;;;;;;;20.13;9.35;;;;;;;10.95;74.06;94653.50;5024500;28;20355;-76
2023/10/04 04:17:41;;;;;;;23.55;10.40;;;;;;;10.94;74.09;94651.13;5024607;28;20029;-76
2023/10/04 04:20:14;;;;;;;24.75;9.85;;;;;;;10.95;73.94;94648.16;5025993;28;20309;-77
2023/10/04 04:22:53;;;;;;;22.33;9.05;;;;;;;10.91;74.24;94657.84;5041010;28;20053;-76
2023/10/04 04:25:19;;;;;;;20.95;10.13;;;;;;;10.84;74.27;94652.09;5025789;28;20134;-78
2023/10/04 04:27:46;;;;;;;28.75;10.13;;;;;;;10.83;74.43;94656.63;5025684;28;20021;-75
2023/10/04 04:30:20;;;;;;;17.85;9.38;;;;;;;10.86;74.58;94649.91;5025600;28;20215;-77
2023/10/04 04:32:52;;;;;;;25.33;9.35;;;;;;;10.81;74.76;94644.69;5025696;28;20033;-77
2023/10/04 04:41:12;;;;;;;22.20;9.88;;;;;;;10.74;75.12;94645.06;5023159;28;20100;-77
2023/10/04 04:43:39;;;;;;;20.60;9.18;;;;;;;10.79;74.97;94644.97;5024291;28;20037;-77
2023/10/04 04:46:16;;;;;;;28.05;10.63;;;;;;;10.80;74.93;94643.09;5024393;28;20129;-77
2023/10/04 04:48:42;;;;;;;31.30;10.85;;;;;;;10.86;74.90;94643.78;5025214;28;20028;-77
2023/10/04 04:51:11;;;;;;;33.75;10.25;;;;;;;10.84;74.87;94644.88;5025318;28;20029;-77
2023/10/04 04:53:39;;;;;;;24.13;10.45;;;;;;;10.88;75.03;94641.63;5025190;28;20052;-76
2023/10/04 04:56:08;;;;;;;30.05;10.93;;;;;;;10.89;75.07;94654.66;5025066;28;20254;-77
2023/10/04 04:58:34;;;;;;;24.98;10.50;;;;;;;10.93;75.04;94644.19;5025188;28;20028;-77
2023/10/04 05:01:01;;;;;;;28.00;10.07;;;;;;;10.96;74.97;94646.28;5024958;28;20087;-77
2023/10/04 05:03:27;;;;;;;23.48;9.80;;;;;;;11.00;74.87;94655.25;5023853;28;20312;-77
2023/10/04 05:05:56;;;;;;;20.15;9.95;;;;;;;11.03;74.80;94658.13;5024819;28;20032;-76
2023/10/04 05:08:24;;;;;;;23.52;10.45;;;;;;;11.07;75.05;94662.88;5024688;28;20070;-75
2023/10/04 05:10:50;;;;;;;20.40;9.32;;;;;;;11.14;74.67;94671.28;5024718;28;20040;-76
2023/10/04 05:13:18;;;;;;;20.60;9.75;;;;;;;11.18;75.05;94667.72;5024762;28;20022;-76
2023/10/04 05:15:47;;;;;;;25.10;9.68;;;;;;;11.25;74.67;94669.97;5024803;28;20097;-76
2023/10/04 05:18:17;;;;;;;23.30;10.43;;;;;;;11.32;74.37;94665.06;5024513;28;20197;-77
2023/10/04 05:20:53;;;;;;;19.90;9.85;;;;;;;11.42;74.06;94669.41;5023432;28;20263;-76
2023/10/04 05:23:21;;;;;;;18.77;9.88;;;;;;;11.50;73.68;94673.22;5024911;28;20018;-76
2023/10/04 05:25:47;;;;;;;24.98;10.15;;;;;;;11.53;73.72;94660.06;5023583;28;20121;-77
2023/10/04 05:28:13;;;;;;;20.33;9.75;;;;;;;11.62;73.58;94668.16;5024644;28;20041;-81
2023/10/04 05:30:44;;;;;;;24.02;10.98;;;;;;;11.68;73.63;94664.28;5024450;28;20320;-77
2023/10/04 05:33:10;;;;;;;24.15;10.38;;;;;;;11.75;73.79;94674.59;5024342;28;20067;-77
2023/10/04 05:35:36;;;;;;;28.63;10.23;;;;;;;11.82;73.18;94669.63;5024327;28;20052;-77
2023/10/04 05:38:03;;;;;;;37.05;12.68;;;;;;;11.88;72.55;94683.66;5024374;28;20046;-76
2023/10/04 05:40:35;;;;;;;26.42;11.18;;;;;;;11.97;72.17;94673.88;5023837;28;20021;-76
2023/10/04 05:43:02;;;;;;;29.35;11.02;;;;;;;12.02;72.14;94677.22;5022648;28;20021;-77
2023/10/04 05:45:28;;;;;;;32.58;11.93;;;;;;;12.12;72.19;94689.56;5024142;28;20090;-77
2023/10/04 05:47:54;;;;;;;27.70;12.15;;;;;;;12.20;71.54;94696.84;5024029;28;20017;-77
2023/10/04 05:50:23;;;;;;;43.65;12.50;;;;;;;12.26;71.42;94689.50;5023993;28;20026;-77
2023/10/04 05:52:51;;;;;;;39.15;14.23;;;;;;;12.29;71.01;94694.22;5023955;28;20117;-77
2023/10/04 05:55:17;;;;;;;37.67;12.63;;;;;;;12.34;70.85;94685.31;5022840;28;20059;-77
2023/10/04 05:57:45;;;;;;;34.67;13.13;;;;;;;12.41;70.56;94688.34;5021960;28;20404;-77
2023/10/04 06:00:33;;;;;;;42.17;12.43;;;;;;;12.50;70.40;94689.22;5022040;28;20029;-77
2023/10/04 06:03:01;;;;;;;38.67;15.32;;;;;;;12.43;70.36;94684.28;5021974;28;20264;-77
2023/10/04 06:05:28;;;;;;;40.03;12.57;;;;;;;12.49;70.51;94692.19;5021907;28;20018;-77
2023/10/04 06:07:54;;;;;;;38.55;13.65;;;;;;;12.54;71.28;94695.53;5022122;28;20022;-77
2023/10/04 06:10:20;;;;;;;38.30;14.07;;;;;;;12.59;70.77;94702.63;5021845;28;20281;-77
2023/10/04 06:12:47;;;;;;;29.80;13.73;;;;;;;12.62;70.56;94696.69;5020803;28;20029;-76
2023/10/04 06:15:18;;;;;;;32.97;14.27;;;;;;;12.60;70.13;94701.56;5021741;28;20041;-76
2023/10/04 06:17:45;;;;;;;41.90;13.48;;;;;;;12.64;70.50;94705.19;5021849;28;20028;-76
2023/10/04 06:20:24;;;;;;;28.48;11.48;;;;;;;12.68;70.25;94700.81;5021787;28;20030;-78
2023/10/04 06:23:01;;;;;;;32.58;12.65;;;;;;;12.70;70.13;94700.50;5022237;28;20076;-78
2023/10/04 06:25:31;;;;;;;36.28;13.57;;;;;;;12.73;70.00;94708.69;5023330;28;20018;-78
2023/10/04 06:27:58;;;;;;;31.30;14.80;;;;;;;12.78;69.78;94697.88;5022157;28;20022;-79
2023/10/04 06:30:28;;;;;;;31.98;12.32;;;;;;;12.84;69.81;94704.69;5023336;28;20018;-78
2023/10/04 06:32:56;;;;;;;33.60;12.88;;;;;;;12.83;69.98;94703.09;5022925;28;20316;-80
2023/10/04 06:35:23;;;;;;;31.33;13.02;;;;;;;12.89;70.07;94716.34;5023113;28;20101;-79
2023/10/04 06:37:54;;;;;;;35.53;13.13;;;;;;;12.96;69.86;94706.78;5023120;28;20042;-80
2023/10/04 06:40:20;;;;;;;38.58;13.75;;;;;;;12.97;69.90;94712.94;5023203;28;20332;-80
2023/10/04 06:42:48;;;;;;;34.90;12.48;;;;;;;12.99;69.12;94706.19;5022984;28;20036;-79
2023/10/04 06:45:17;;;;;;;31.95;13.13;;;;;;;13.02;68.76;94708.22;5023231;28;20026;-79
2023/10/04 06:47:44;;;;;;;29.00;12.88;;;;;;;13.11;68.38;94712.84;5023065;28;20029;-79
2023/10/04 06:50:15;;;;;;;28.50;14.05;;;;;;;13.15;68.35;94714.59;5023002;28;20276;-79
2023/10/04 06:52:42;;;;;;;27.38;14.48;;;;;;;13.23;68.17;94715.75;5022936;28;20224;-78
2023/10/04 06:55:10;;;;;;;30.13;12.82;;;;;;;13.29;67.53;94724.41;5022928;28;20022;-79
2023/10/04 06:57:39;;;;;;;36.20;12.80;;;;;;;13.23;67.79;94726.47;5023009;28;20033;-79
2023/10/04 07:00:15;;;;;;;31.45;14.95;;;;;;;13.30;68.10;94734.06;5022823;28;20021;-78
2023/10/04 07:02:47;;;;;;;29.80;13.85;;;;;;;13.33;68.20;94728.91;5037829;28;20064;-80
2023/10/04 07:05:24;;;;;;;35.72;15.45;;;;;;;13.43;67.66;94725.94;5022783;28;20080;-80
2023/10/04 07:07:56;;;;;;;37.45;13.75;;;;;;;13.58;67.59;94726.63;5022503;28;20026;-80
2023/10/04 07:10:23;;;;;;;32.17;14.15;;;;;;;13.60;67.01;94724.41;5022546;28;20036;-80
2023/10/04 07:12:54;;;;;;;44.65;15.23;;;;;;;13.67;67.17;94729.31;5022560;28;20026;-79
2023/10/04 07:15:21;;;;;;;27.55;14.00;;;;;;;13.75;66.71;94728.56;5022819;28;20026;-81
2023/10/04 07:17:47;;;;;;;39.70;16.13;;;;;;;13.85;66.49;94726.34;5021545;28;20033;-80
2023/10/04 07:20:15;;;;;;;40.33;15.93;;;;;;;13.89;65.92;94723.06;5022631;28;20029;-80
2023/10/04 07:22:43;;;;;;;32.08;14.00;;;;;;;14.00;65.75;94711.75;5022688;28;20029;-82
2023/10/04 07:25:09;;;;;;;42.55;15.02;;;;;;;14.09;65.10;94714.44;5022599;28;20018;-82
2023/10/04 07:27:35;;;;;;;34.03;15.45;;;;;;;14.19;64.60;94708.75;5022688;28;20026;-80
2023/10/04 07:30:01;;;;;;;40.55;15.43;;;;;;;14.25;64.24;94707.50;5022767;28;20279;-80
2023/10/04 07:32:28;;;;;;;33.83;14.35;;;;;;;14.38;63.89;94704.97;5021540;28;20022;-81
2023/10/04 07:34:53;;;;;;;35.50;15.32;;;;;;;14.47;63.41;94708.44;5022670;28;20045;-80
2023/10/04 07:37:19;;;;;;;39.70;14.55;;;;;;;14.59;63.33;94710.50;5022357;28;20319;-79
2023/10/04 07:39:44;;;;;;;39.10;13.95;;;;;;;14.73;62.56;94710.34;5021212;28;20026;-80
2023/10/04 07:42:10;;;;;;;32.42;14.07;;;;;;;14.76;61.75;94707.81;5022580;28;20029;-80
2023/10/04 07:44:36;;;;;;;33.00;14.55;;;;;;;14.81;61.41;94701.47;5023296;28;20026;-81
2023/10/04 07:47:02;;;;;;;34.63;13.38;;;;;;;14.89;61.50;94703.34;5026378;28;20026;-79
2023/10/04 07:49:31;;;;;;;29.02;14.20;;;;;;;15.01;61.26;94697.34;5026339;28;20228;-80
2023/10/04 07:51:59;;;;;;;30.73;14.48;;;;;;;15.14;60.98;94701.72;5026332;28;20088;-80
2023/10/04 07:54:25;;;;;;;32.25;14.70;;;;;;;15.21;60.42;94704.69;5026168;28;20380;-80
2023/10/04 07:56:50;;;;;;;37.65;13.57;;;;;;;15.26;59.92;94701.03;5026039;28;20042;-80
2023/10/04 07:59:17;;;;;;;30.50;12.43;;;;;;;15.33;59.76;94704.03;5026081;28;20056;-78
2023/10/04 08:01:43;;;;;;;33.63;14.05;;;;;;;15.38;59.50;94706.50;5026289;28;20030;-80
2023/10/04 08:04:11;;;;;;;29.63;12.90;;;;;;;15.47;59.35;94703.81;5026169;28;20096;-79
2023/10/04 08:06:36;;;;;;;30.27;13.18;;;;;;;15.53;59.15;94699.03;5025744;28;20025;-79
2023/10/04 08:09:04;;;;;;;38.75;12.98;;;;;;;15.59;59.05;94690.47;5026088;28;20306;-80
2023/10/04 08:11:33;;;;;;;35.63;14.60;;;;;;;15.75;58.58;94692.63;5025675;28;20124;-80
2023/10/04 08:13:59;;;;;;;37.25;13.70;;;;;;;15.75;57.72;94685.38;5025693;28;20060;-78
2023/10/04 08:16:25;;;;;;;27.33;14.23;;;;;;;15.81;57.97;94686.75;5025559;28;20029;-80
2023/10/04 08:18:50;;;;;;;47.67;14.45;;;;;;;15.88;57.88;94693.50;5025673;28;20113;-80
2023/10/04 08:21:15;;;;;;;26.95;13.98;;;;;;;15.88;57.85;94688.13;5025659;28;20076;-79
2023/10/04 08:23:41;;;;;;;31.73;14.07;;;;;;;15.79;58.04;94688.97;5025481;28;20076;-81
2023/10/04 08:26:14;;;;;;;37.03;13.25;;;;;;;15.96;57.50;94688.06;5025420;28;20429;-79
2023/10/04 08:28:41;;;;;;;28.25;13.38;;;;;;;16.07;57.70;94688.47;5025650;28;20075;-78
2023/10/04 08:31:08;;;;;;;28.33;13.20;;;;;;;16.18;57.71;94681.59;5025542;28;20032;-80
2023/10/04 08:33:34;;;;;;;33.10;12.43;;;;;;;16.32;57.10;94675.94;5025595;28;20026;-79
2023/10/04 08:35:59;;;;;;;33.28;12.82;;;;;;;16.44;56.59;94667.13;5025372;28;20022;-81
2023/10/04 08:38:25;;;;;;;33.45;12.52;;;;;;;16.60;56.69;94673.47;5023893;28;20245;-80
2023/10/04 08:40:53;;;;;;;29.70;12.45;;;;;;;16.69;55.44;94677.97;5040357;28;20254;-80
2023/10/04 08:43:18;;;;;;;38.38;14.05;;;;;;;16.76;55.39;94678.25;5024977;28;20220;-80
2023/10/04 08:45:46;;;;;;;25.75;13.20;;;;;;;16.88;55.45;94675.63;5025305;28;20042;-81
2023/10/04 08:48:12;;;;;;;37.05;15.35;;;;;;;16.99;54.92;94671.38;5025039;28;20269;-78
2023/10/04 08:51:01;;;;;;;23.98;12.18;;;;;;;17.09;53.72;94662.06;5025151;28;20065;-81
2023/10/04 08:53:55;;;;;;;28.08;12.52;;;;;;;17.19;54.26;94668.94;5025086;28;20030;-79
2023/10/04 08:56:23;;;;;;;29.80;12.68;;;;;;;17.33;54.45;94664.00;5024557;28;20057;-79
2023/10/04 08:58:50;;;;;;;29.67;12.20;;;;;;;17.45;54.23;94671.31;5023692;28;20320;-81
2023/10/04 09:01:19;;;;;;;34.20;12.57;;;;;;;17.50;52.79;94670.31;5025000;28;20030;-80
2023/10/04 09:03:47;;;;;;;36.00;13.48;;;;;;;17.61;52.32;94669.53;5024839;28;20022;-81
2023/10/04 09:06:17;;;;;;;28.25;12.10;;;;;;;17.70;52.44;94666.69;5023701;28;20022;-80
2023/10/04 09:08:46;;;;;;;34.55;13.60;;;;;;;17.78;52.55;94673.88;5024904;28;20038;-81
2023/10/04 09:11:13;;;;;;;28.40;13.50;;;;;;;17.92;51.71;94667.38;5024912;28;20085;-81
2023/10/04 09:13:50;;;;;;;36.38;13.02;;;;;;;18.09;51.63;94672.50;5023204;28;20036;-82
2023/10/04 09:16:29;;;;;;;36.17;13.20;;;;;;;18.18;51.08;94675.09;5023313;28;20044;-81
2023/10/04 09:19:06;;;;;;;26.10;11.45;;;;;;;18.27;50.37;94667.63;5024675;28;20034;-81
2023/10/04 09:21:32;;;;;;;31.73;12.02;;;;;;;18.36;50.99;94668.31;5024598;28;20208;-81
2023/10/04 09:24:09;;;;;;;37.53;12.82;;;;;;;18.49;50.86;94660.16;5023630;28;20137;-80
2023/10/04 09:26:38;;;;;;;28.30;11.25;;;;;;;18.64;50.36;94665.59;5023479;28;20022;-83
2023/10/04 09:29:05;;;;;;;29.70;11.55;;;;;;;18.76;50.22;94655.88;5024621;28;20030;-81
2023/10/04 09:31:44;;;;;;;27.65;11.07;;;;;;;18.91;49.65;94668.66;5023025;28;20033;-78
2023/10/04 09:34:13;;;;;;;23.13;11.00;;;;;;;19.00;48.59;94650.34;5024207;28;20064;-81
2023/10/04 09:36:40;;;;;;;22.80;12.00;;;;;;;19.15;48.44;94658.81;5024201;28;20029;-81
2023/10/04 09:39:07;;;;;;;28.83;10.63;;;;;;;19.26;49.09;94657.19;5023127;28;20122;-80
2023/10/04 09:41:47;;;;;;;26.48;10.15;;;;;;;19.40;47.64;94657.53;5022445;28;20250;-80
2023/10/04 09:44:25;;;;;;;36.00;11.82;;;;;;;19.49;46.40;94653.84;5022505;28;20308;-80
2023/10/04 09:47:02;;;;;;;35.92;11.40;;;;;;;19.48;46.61;94649.56;5022247;28;20029;-80
2023/10/04 09:49:31;;;;;;;30.42;11.43;;;;;;;19.58;46.43;94652.53;5023630;28;20080;-80
2023/10/04 09:52:00;;;;;;;31.38;11.55;;;;;;;19.62;46.49;94648.00;5023639;28;20041;-80
2023/10/04 09:54:30;;;;;;;30.52;10.65;;;;;;;19.67;46.18;94649.66;5022580;28;20044;-80
2023/10/04 09:56:57;;;;;;;25.42;10.55;;;;;;;19.83;45.17;94645.03;5022301;28;20258;-80
2023/10/04 09:59:23;;;;;;;30.15;10.80;;;;;;;19.92;44.28;94644.81;5020629;28;20044;-80
2023/10/04 10:01:56;;;;;;;34.28;9.63;;;;;;;20.02;44.70;94654.31;5022011;28;20029;-80
2023/10/04 10:04:27;;;;;;;37.30;10.15;;;;;;;20.06;44.56;94660.59;5020620;28;20025;-79
2023/10/04 10:06:55;;;;;;;25.20;10.60;;;;;;;20.18;44.63;94660.47;5020019;28;20202;-80
2023/10/04 10:09:23;;;;;;;22.45;9.65;;;;;;;20.33;44.10;94658.03;5021502;28;20064;-80
2023/10/04 10:11:52;;;;;;;27.23;10.68;;;;;;;20.45;43.46;94649.78;5022514;28;20033;-80
2023/10/04 10:14:22;;;;;;;26.33;11.57;;;;;;;20.57;44.03;94640.72;5023438;28;20092;-79
2023/10/04 10:16:54;;;;;;;23.58;9.40;;;;;;;20.70;45.03;94638.69;5022945;28;20220;-80
2023/10/04 10:19:22;;;;;;;28.30;10.70;;;;;;;20.82;43.06;94631.19;5023028;28;20029;-79
2023/10/04 10:22:18;;;;;;;22.48;9.68;;;;;;;20.85;43.43;94635.09;5023472;28;20028;-79
2023/10/04 10:25:11;;;;;;;23.40;8.93;;;;;;;21.01;43.39;94622.22;5015251;28;20350;-78
2023/10/04 10:27:36;;;;;;;20.52;9.68;;;;;;;21.10;41.72;94618.50;5023434;28;20049;-80
2023/10/04 10:30:07;;;;;;;24.27;9.50;;;;;;;21.23;42.03;94612.53;5023258;28;20042;-79
2023/10/04 10:32:33;;;;;;;21.65;9.02;;;;;;;21.32;40.73;94612.28;5023169;28;20031;-80
2023/10/04 10:35:04;;;;;;;19.92;8.10;;;;;;;21.34;41.28;94601.06;5023142;28;20049;-83
2023/10/04 10:37:34;;;;;;;31.65;9.80;;;;;;;21.47;39.47;94599.75;5023107;28;20113;-82
2023/10/04 10:40:07;;;;;;;17.50;8.65;;;;;;;21.56;38.55;94600.28;5023018;28;20089;-78
2023/10/04 10:43:11;;;;;;;21.73;8.23;;;;;;;21.63;39.17;94591.47;5023419;28;20032;-82
2023/10/04 10:45:37;;;;;;;17.85;7.53;;;;;;;21.75;37.63;94593.97;5023099;28;20024;-82
2023/10/04 10:48:07;;;;;;;20.10;7.65;;;;;;;21.82;36.38;94588.66;5023321;28;20022;-80
2023/10/04 10:50:38;;;;;;;29.30;7.68;;;;;;;21.95;35.71;94583.00;5022805;28;20021;-80
2023/10/04 10:53:05;;;;;;;27.92;6.65;;;;;;;22.02;34.58;94580.34;5022985;28;20087;-83
2023/10/04 10:55:33;;;;;;;14.75;7.32;;;;;;;22.07;34.93;94590.13;5023862;28;20049;-91
2023/10/04 10:58:01;;;;;;;16.50;6.03;;;;;;;22.12;33.88;94579.72;5024198;28;20029;-81
2023/10/04 11:00:37;;;;;;;13.80;6.63;;;;;;;22.27;33.20;94572.56;5023248;28;20026;-82
2023/10/04 11:03:09;;;;;;;18.85;7.78;;;;;;;22.35;33.35;94576.16;5023125;28;20076;-82
2023/10/04 11:05:35;;;;;;;17.08;6.68;;;;;;;22.52;35.50;94572.84;5022956;28;20022;-81
2023/10/04 11:08:01;;;;;;;19.88;8.18;;;;;;;22.71;34.84;94571.06;5022948;28;20033;-82
2023/10/04 11:10:27;;;;;;;17.73;6.90;;;;;;;22.80;35.02;94575.06;5022489;28;20049;-80
2023/10/04 11:12:56;;;;;;;16.42;6.45;;;;;;;22.95;33.27;94577.91;5022859;28;20037;-82
2023/10/04 11:15:27;;;;;;;15.13;6.18;;;;;;;23.07;32.51;94577.66;5021503;28;20026;-81
2023/10/04 11:17:53;;;;;;;18.02;6.28;;;;;;;23.13;32.87;94569.94;5021503;28;20033;-81
2023/10/04 11:20:20;;;;;;;12.85;6.13;;;;;;;23.17;31.71;94570.75;5028869;28;20026;-82
2023/10/04 11:22:49;;;;;;;17.30;6.38;;;;;;;23.23;29.85;94563.81;5029004;28;20052;-82
2023/10/04 11:25:19;;;;;;;14.15;5.90;;;;;;;23.23;30.07;94561.09;5029101;28;20331;-81
2023/10/04 11:27:47;;;;;;;16.98;5.80;;;;;;;23.30;29.96;94563.84;5029208;28;20021;-81
2023/10/04 11:30:14;;;;;;;14.98;6.05;;;;;;;23.41;30.14;94559.28;5029168;28;20030;-81
2023/10/04 11:32:41;;;;;;;13.65;5.47;;;;;;;23.58;26.53;94565.22;5028967;28;20041;-79
2023/10/04 11:35:11;;;;;;;13.27;5.25;;;;;;;23.59;27.07;94555.88;5028873;28;20320;-80
2023/10/04 11:37:44;;;;;;;18.60;5.28;;;;;;;23.63;26.02;94554.00;5027776;28;20041;-80